createdAt,value
2019-03-30T00:00:41.464Z,6.17
2019-03-30T00:03:11.926Z,5.90
2019-03-30T00:05:42.507Z,6.30
2019-03-30T00:08:12.771Z,5.83
2019-03-30T00:10:43.283Z,5.93
2019-03-30T00:13:13.793Z,5.30
2019-03-30T00:15:43.952Z,6.13
2019-03-30T00:18:14.134Z,5.60
2019-03-30T00:20:44.413Z,5.77
2019-03-30T00:23:14.575Z,5.90
2019-03-30T00:25:44.732Z,5.27
2019-03-30T00:28:14.940Z,5.23
2019-03-30T00:30:45.074Z,5.50
2019-03-30T00:33:15.304Z,5.73
2019-03-30T00:35:45.488Z,5.90
2019-03-30T00:38:15.890Z,5.27
2019-03-30T00:40:46.407Z,5.87
2019-03-30T00:43:16.976Z,6.13
2019-03-30T00:45:47.588Z,5.47
2019-03-30T00:48:18.211Z,5.17
2019-03-30T00:50:48.755Z,5.47
2019-03-30T00:53:19.196Z,6.20
2019-03-30T00:55:49.581Z,5.30
2019-03-30T00:58:20.031Z,5.20
2019-03-30T01:00:50.346Z,5.67
2019-03-30T01:03:21.003Z,5.00
2019-03-30T01:05:51.471Z,6.07
2019-03-30T01:08:21.799Z,6.13
2019-03-30T01:10:52.439Z,5.53
2019-03-30T01:13:22.891Z,6.07
2019-03-30T01:15:53.500Z,5.63
2019-03-30T01:18:24.223Z,5.30
2019-03-30T01:20:54.864Z,6.33
2019-03-30T01:23:26.878Z,5.57
2019-03-30T01:25:56.999Z,6.37
2019-03-30T01:28:27.172Z,5.33
2019-03-30T01:30:57.659Z,5.90
2019-03-30T01:33:27.689Z,5.33
2019-03-30T01:35:57.944Z,5.60
2019-03-30T01:38:28.088Z,6.03
2019-03-30T01:40:58.243Z,6.13
2019-03-30T01:43:28.400Z,5.83
2019-03-30T01:45:58.725Z,5.30
2019-03-30T01:48:28.918Z,5.73
2019-03-30T01:50:59.248Z,6.40
2019-03-30T01:53:29.450Z,6.00
2019-03-30T01:55:59.684Z,5.40
2019-03-30T01:58:29.848Z,5.97
2019-03-30T02:01:00.075Z,5.37
2019-03-30T02:03:30.211Z,5.67
2019-03-30T02:06:00.375Z,5.77
2019-03-30T02:08:30.585Z,5.93
2019-03-30T02:11:00.823Z,5.70
2019-03-30T02:13:31.100Z,5.43
2019-03-30T02:16:01.558Z,5.93
2019-03-30T02:18:31.759Z,6.23
2019-03-30T02:21:01.912Z,5.73
2019-03-30T02:23:32.055Z,6.53
2019-03-30T02:26:02.224Z,5.50
2019-03-30T02:28:32.419Z,5.60
2019-03-30T02:31:02.590Z,5.97
2019-03-30T02:33:32.749Z,6.03
2019-03-30T02:36:03.036Z,5.93
2019-03-30T02:38:33.336Z,5.70
2019-03-30T02:41:03.907Z,6.27
2019-03-30T02:43:34.043Z,6.07
2019-03-30T02:46:04.278Z,6.23
2019-03-30T02:48:34.444Z,6.77
2019-03-30T02:51:04.973Z,7.00
2019-03-30T02:53:35.591Z,7.13
2019-03-30T02:56:05.724Z,5.87
2019-03-30T02:58:35.887Z,6.77
2019-03-30T03:01:06.044Z,6.33
2019-03-30T03:03:36.383Z,6.90
2019-03-30T03:06:06.768Z,7.23
2019-03-30T03:08:36.907Z,6.23
2019-03-30T03:11:07.376Z,5.87
2019-03-30T03:13:37.995Z,6.87
2019-03-30T03:16:08.132Z,6.50
2019-03-30T03:18:38.623Z,6.60
2019-03-30T03:21:09.147Z,6.20
2019-03-30T03:23:39.676Z,7.17
2019-03-30T03:26:10.016Z,7.03
2019-03-30T03:28:40.545Z,6.30
2019-03-30T03:31:11.063Z,6.67
2019-03-30T03:33:41.582Z,7.17
2019-03-30T03:36:12.104Z,6.33
2019-03-30T03:38:42.668Z,7.00
2019-03-30T03:41:13.277Z,7.13
2019-03-30T03:43:43.907Z,7.03
2019-03-30T03:46:14.458Z,6.43
2019-03-30T03:48:44.742Z,5.90
2019-03-30T03:51:25.606Z,7.20
2019-03-30T03:53:47.727Z,6.77
2019-03-30T03:56:18.548Z,7.03
2019-03-30T03:58:49.233Z,7.20
2019-03-30T04:01:21.996Z,6.70
2019-03-30T04:03:55.552Z,7.70
2019-03-30T04:06:28.165Z,7.87
2019-03-30T04:08:59.880Z,7.33
2019-03-30T04:11:32.368Z,7.77
2019-03-30T04:14:04.336Z,7.17
2019-03-30T04:16:36.927Z,7.57
2019-03-30T04:19:07.484Z,7.27
2019-03-30T04:21:44.125Z,7.93
2019-03-30T04:24:09.480Z,7.97
2019-03-30T04:26:39.620Z,7.73
2019-03-30T04:29:11.556Z,8.23
2019-03-30T04:31:42.098Z,8.97
2019-03-30T04:34:12.599Z,8.90
2019-03-30T04:36:42.760Z,7.93
2019-03-30T04:39:13.500Z,8.43
2019-03-30T04:41:45.862Z,7.70
2019-03-30T04:44:16.146Z,7.77
2019-03-30T04:46:46.668Z,7.53
2019-03-30T04:49:17.404Z,8.27
2019-03-30T04:51:57.318Z,8.47
2019-03-30T04:54:20.103Z,8.27
2019-03-30T04:56:50.668Z,7.53
2019-03-30T04:59:21.047Z,8.20
2019-03-30T05:01:51.479Z,7.70
2019-03-30T05:04:22.026Z,8.40
2019-03-30T05:06:52.523Z,8.57
2019-03-30T05:09:22.991Z,8.30
2019-03-30T05:11:53.468Z,8.83
2019-03-30T05:14:23.879Z,8.30
2019-03-30T05:16:54.228Z,8.30
2019-03-30T05:19:24.617Z,8.33
2019-03-30T05:21:55.235Z,9.07
2019-03-30T05:24:25.867Z,7.67
2019-03-30T05:26:56.054Z,8.87
2019-03-30T05:29:26.653Z,9.67
2019-03-30T05:31:57.168Z,9.07
2019-03-30T05:34:27.827Z,9.10
2019-03-30T05:36:58.393Z,8.47
2019-03-30T05:39:28.899Z,8.10
2019-03-30T05:41:59.466Z,9.33
2019-03-30T05:44:29.886Z,8.70
2019-03-30T05:47:00.246Z,8.10
2019-03-30T05:49:30.680Z,8.80
2019-03-30T05:52:01.112Z,8.70
2019-03-30T05:54:31.521Z,9.60
2019-03-30T05:57:05.018Z,8.50
2019-03-30T05:59:35.454Z,8.63
2019-03-30T06:02:05.984Z,9.13
2019-03-30T06:04:36.507Z,8.70
2019-03-30T06:07:07.150Z,8.57
2019-03-30T06:09:37.667Z,9.87
2019-03-30T06:12:08.191Z,9.23
2019-03-30T06:14:38.612Z,9.17
2019-03-30T06:17:11.507Z,8.80
2019-03-30T06:19:41.939Z,8.83
2019-03-30T06:22:12.457Z,9.43
2019-03-30T06:24:42.883Z,9.23
2019-03-30T06:27:13.415Z,10.63
2019-03-30T06:29:46.215Z,9.37
2019-03-30T06:32:16.829Z,8.03
2019-03-30T06:34:46.979Z,9.33
2019-03-30T06:37:17.371Z,9.53
2019-03-30T06:39:47.523Z,9.20
2019-03-30T06:42:17.715Z,9.50
2019-03-30T06:44:47.879Z,10.43
2019-03-30T06:47:18.415Z,10.20
2019-03-30T06:49:48.571Z,9.20
2019-03-30T06:52:19.935Z,9.37
2019-03-30T06:54:50.185Z,9.73
2019-03-30T06:57:20.778Z,8.40
2019-03-30T06:59:50.958Z,9.87
2019-03-30T07:02:21.283Z,9.73
2019-03-30T07:04:51.988Z,9.43
2019-03-30T07:07:23.740Z,10.33
2019-03-30T07:09:54.631Z,9.07
2019-03-30T07:12:25.847Z,10.53
2019-03-30T07:14:59.308Z,9.70
2019-03-30T07:17:30.227Z,9.43
2019-03-30T07:20:02.839Z,10.70
2019-03-30T07:22:34.727Z,9.60
2019-03-30T07:25:05.072Z,10.67
2019-03-30T07:27:35.207Z,9.30
2019-03-30T07:30:05.714Z,9.57
2019-03-30T07:32:36.144Z,9.43
2019-03-30T07:35:08.819Z,10.23
2019-03-30T07:37:39.360Z,11.37
2019-03-30T07:40:09.903Z,9.23
2019-03-30T07:42:40.454Z,9.03
2019-03-30T07:45:10.960Z,9.80
2019-03-30T07:47:41.280Z,8.87
2019-03-30T07:50:11.935Z,9.00
2019-03-30T07:52:42.083Z,9.53
2019-03-30T07:55:12.247Z,9.73
2019-03-30T07:57:42.406Z,7.97
2019-03-30T08:00:13.200Z,8.87
2019-03-30T08:02:43.521Z,9.87
2019-03-30T08:05:13.992Z,8.97
2019-03-30T08:07:44.302Z,7.80
2019-03-30T08:10:15.923Z,7.97
2019-03-30T08:12:46.207Z,8.97
2019-03-30T08:15:16.387Z,8.10
2019-03-30T08:17:46.555Z,8.43
2019-03-30T08:20:17.145Z,8.20
2019-03-30T08:22:52.060Z,8.30
2019-03-30T08:25:22.175Z,8.17
2019-03-30T08:27:52.736Z,7.93
2019-03-30T08:30:22.903Z,7.93
2019-03-30T08:32:53.077Z,7.03
2019-03-30T08:35:23.287Z,8.20
2019-03-30T08:37:53.561Z,7.40
2019-03-30T08:40:23.719Z,7.63
2019-03-30T08:42:53.967Z,6.63
2019-03-30T08:45:24.580Z,7.07
2019-03-30T08:47:54.855Z,7.33
2019-03-30T08:50:25.234Z,8.10
2019-03-30T08:52:55.730Z,8.90
2019-03-30T08:55:26.791Z,7.77
2019-03-30T08:57:57.080Z,7.83
2019-03-30T09:00:40.787Z,7.50
2019-03-30T09:03:11.350Z,7.13
2019-03-30T09:05:41.559Z,9.00
2019-03-30T09:08:11.712Z,7.57
2019-03-30T09:10:42.311Z,7.63
2019-03-30T09:13:12.780Z,6.67
2019-03-30T09:15:42.968Z,7.60
2019-03-30T09:18:13.383Z,7.27
2019-03-30T09:20:43.816Z,7.53
2019-03-30T09:23:14.351Z,7.60
2019-03-30T09:25:44.776Z,6.70
2019-03-30T09:28:14.948Z,6.70
2019-03-30T09:30:45.123Z,8.47
2019-03-30T09:33:15.619Z,6.23
2019-03-30T09:35:45.816Z,7.40
2019-03-30T09:38:16.380Z,7.47
2019-03-30T09:40:46.723Z,7.20
2019-03-30T09:43:17.184Z,7.20
2019-03-30T09:45:47.669Z,6.93
2019-03-30T09:48:17.991Z,7.17
2019-03-30T09:50:48.622Z,7.10
2019-03-30T09:53:20.717Z,8.27
2019-03-30T09:55:53.553Z,7.33
2019-03-30T09:58:24.126Z,6.13
2019-03-30T10:00:54.616Z,6.97
2019-03-30T10:03:26.287Z,6.43
2019-03-30T10:05:58.857Z,7.20
2019-03-30T10:08:29.503Z,7.23
2019-03-30T10:11:00.601Z,6.87
2019-03-30T10:13:31.092Z,7.90
2019-03-30T10:16:07.120Z,7.03
2019-03-30T10:18:40.938Z,5.40
2019-03-30T10:21:12.474Z,7.57
2019-03-30T10:23:45.863Z,6.93
2019-03-30T10:26:19.847Z,7.27
2019-03-30T10:29:01.012Z,7.43
2019-03-30T10:31:43.273Z,6.37
2019-03-30T10:34:44.473Z,6.37
2019-03-30T10:37:07.754Z,6.27
2019-03-30T10:39:45.269Z,6.50
2019-03-30T10:42:34.003Z,6.33
2019-03-30T10:45:25.903Z,6.47
2019-03-30T10:48:05.996Z,6.40
2019-03-30T10:50:47.493Z,5.77
2019-03-30T10:53:19.185Z,6.80
2019-03-30T10:56:00.266Z,6.30
2019-03-30T10:58:31.750Z,6.20
2019-03-30T11:01:08.529Z,6.10
2019-03-30T11:03:46.173Z,6.70
2019-03-30T11:06:23.394Z,6.30
2019-03-30T11:09:22.740Z,7.47
2019-03-30T11:11:55.846Z,7.13
2019-03-30T11:14:28.577Z,5.90
2019-03-30T11:17:07.563Z,6.53
2019-03-30T11:19:37.390Z,5.63
2019-03-30T11:22:12.774Z,6.07
2019-03-30T11:24:47.174Z,6.40
2019-03-30T11:27:19.779Z,6.40
2019-03-30T11:29:52.676Z,5.93
2019-03-30T11:32:24.328Z,6.13
2019-03-30T11:34:54.796Z,6.13
2019-03-30T11:37:25.332Z,6.53
2019-03-30T11:39:55.871Z,6.00
2019-03-30T11:42:26.488Z,5.67
2019-03-30T11:44:56.832Z,5.93
2019-03-30T11:47:27.399Z,5.33
2019-03-30T11:49:57.891Z,6.13
2019-03-30T11:52:28.385Z,5.80
2019-03-30T11:54:58.839Z,6.33
2019-03-30T11:57:29.462Z,5.47
2019-03-30T12:00:00.012Z,5.50
2019-03-30T12:02:30.400Z,5.00
2019-03-30T12:05:00.725Z,6.13
2019-03-30T12:07:31.159Z,5.43
2019-03-30T12:10:01.758Z,5.53
2019-03-30T12:12:32.323Z,6.17
2019-03-30T12:15:05.167Z,6.20
2019-03-30T12:17:35.667Z,5.87
2019-03-30T12:20:06.499Z,5.27
2019-03-30T12:22:36.986Z,6.50
2019-03-30T12:25:07.712Z,6.20
2019-03-30T12:27:38.197Z,5.87
2019-03-30T12:30:11.372Z,5.60
2019-03-30T12:32:41.952Z,6.33
2019-03-30T12:35:12.487Z,5.23
2019-03-30T12:37:42.936Z,4.70
2019-03-30T12:40:13.651Z,5.27
2019-03-30T12:42:44.077Z,5.93
2019-03-30T12:45:14.863Z,5.23
2019-03-30T12:47:45.340Z,6.70
2019-03-30T12:50:16.115Z,5.13
2019-03-30T12:52:46.667Z,5.63
2019-03-30T12:55:17.231Z,5.43
2019-03-30T12:57:47.773Z,5.00
2019-03-30T13:00:18.691Z,4.67
2019-03-30T13:02:49.234Z,4.90
2019-03-30T13:05:19.739Z,4.90
2019-03-30T13:07:50.323Z,4.80
2019-03-30T13:10:21.115Z,4.80
2019-03-30T13:12:51.655Z,5.67
2019-03-30T13:15:22.272Z,5.07
2019-03-30T13:17:52.830Z,5.60
2019-03-30T13:20:23.332Z,5.97
2019-03-30T13:22:53.877Z,5.67
2019-03-30T13:25:24.485Z,5.10
2019-03-30T13:27:54.954Z,5.37
2019-03-30T13:30:25.643Z,6.57
2019-03-30T13:32:56.088Z,4.83
2019-03-30T13:35:26.619Z,5.70
2019-03-30T13:37:57.140Z,5.40
2019-03-30T13:40:27.731Z,5.17
2019-03-30T13:42:58.099Z,5.03
2019-03-30T13:45:28.747Z,5.10
2019-03-30T13:47:59.352Z,4.57
2019-03-30T13:50:31.080Z,5.40
2019-03-30T13:53:01.744Z,6.63
2019-03-30T13:55:32.261Z,5.07
2019-03-30T13:58:02.675Z,5.33
2019-03-30T14:00:33.166Z,5.93
2019-03-30T14:03:03.805Z,5.70
2019-03-30T14:05:34.366Z,5.07
2019-03-30T14:08:04.892Z,5.70
2019-03-30T14:10:38.756Z,5.17
2019-03-30T14:13:07.795Z,5.07
2019-03-30T14:15:38.133Z,5.27
2019-03-30T14:18:10.797Z,6.47
2019-03-30T14:20:41.335Z,4.83
2019-03-30T14:23:11.959Z,5.23
2019-03-30T14:25:42.596Z,4.13
2019-03-30T14:28:13.214Z,5.07
2019-03-30T14:30:43.762Z,5.50
2019-03-30T14:33:14.385Z,4.90
2019-03-30T14:35:44.728Z,5.13
2019-03-30T14:38:15.323Z,4.97
2019-03-30T14:40:45.479Z,4.73
2019-03-30T14:43:15.995Z,5.80
2019-03-30T14:45:46.517Z,5.40
2019-03-30T14:48:17.031Z,4.70
2019-03-30T14:50:47.455Z,4.80
2019-03-30T14:53:17.848Z,4.13
2019-03-30T14:55:48.401Z,4.57
2019-03-30T14:58:18.767Z,4.03
2019-03-30T15:00:49.038Z,5.13
2019-03-30T15:03:19.229Z,4.70
2019-03-30T15:05:49.515Z,4.53
2019-03-30T15:08:19.835Z,4.97
2019-03-30T15:10:50.351Z,5.00
2019-03-30T15:13:20.925Z,5.10
2019-03-30T15:15:51.524Z,3.97
2019-03-30T15:18:22.199Z,4.73
2019-03-30T15:20:52.763Z,3.87
2019-03-30T15:23:26.813Z,5.27
2019-03-30T15:25:55.620Z,5.13
2019-03-30T15:28:26.191Z,5.03
2019-03-30T15:30:56.739Z,6.00
2019-03-30T15:33:27.355Z,6.17
2019-03-30T15:35:57.920Z,6.40
2019-03-30T15:38:28.150Z,6.27
2019-03-30T15:40:58.473Z,6.83
2019-03-30T15:43:37.995Z,6.37
2019-03-30T15:46:02.356Z,6.23
2019-03-30T15:48:32.922Z,6.77
2019-03-30T15:51:03.413Z,6.03
2019-03-30T15:53:33.757Z,4.80
2019-03-30T15:56:04.303Z,5.07
2019-03-30T15:58:34.800Z,5.20
2019-03-30T16:01:05.527Z,5.30
2019-03-30T16:03:36.056Z,4.60
2019-03-30T16:06:06.519Z,4.87
2019-03-30T16:08:37.048Z,5.37
2019-03-30T16:11:07.743Z,4.70
2019-03-30T16:13:38.272Z,4.70
2019-03-30T16:16:08.908Z,4.23
2019-03-30T16:18:39.531Z,4.63
2019-03-30T16:21:10.184Z,4.93
2019-03-30T16:23:40.678Z,4.43
2019-03-30T16:26:11.283Z,6.27
2019-03-30T16:28:41.746Z,4.67
2019-03-30T16:31:12.280Z,4.93
2019-03-30T16:33:42.859Z,4.43
2019-03-30T16:36:13.285Z,5.33
2019-03-30T16:38:43.843Z,4.80
2019-03-30T16:41:14.510Z,4.80
2019-03-30T16:43:45.044Z,5.17
2019-03-30T16:46:15.745Z,4.53
2019-03-30T16:48:46.387Z,5.43
2019-03-30T16:51:17.042Z,4.93
2019-03-30T16:53:47.626Z,4.93
2019-03-30T16:56:18.176Z,6.23
2019-03-30T16:58:48.684Z,6.00
2019-03-30T17:01:19.064Z,6.13
2019-03-30T17:03:49.531Z,5.33
2019-03-30T17:06:20.008Z,5.47
2019-03-30T17:08:50.289Z,5.60
2019-03-30T17:11:20.823Z,5.60
2019-03-30T17:13:51.456Z,6.50
2019-03-30T17:16:22.123Z,5.80
2019-03-30T17:18:52.724Z,6.13
2019-03-30T17:21:23.271Z,5.03
2019-03-30T17:23:53.741Z,5.73
2019-03-30T17:26:26.341Z,5.90
2019-03-30T17:28:56.876Z,6.13
2019-03-30T17:31:29.559Z,6.57
2019-03-30T17:34:00.184Z,6.63
2019-03-30T17:36:30.803Z,7.00
2019-03-30T17:39:01.278Z,7.33
2019-03-30T17:41:31.752Z,6.93
2019-03-30T17:44:01.898Z,7.90
2019-03-30T17:46:32.521Z,8.10
2019-03-30T17:49:03.136Z,9.07
2019-03-30T17:51:33.313Z,10.77
2019-03-30T17:54:03.796Z,9.47
2019-03-30T17:56:33.988Z,9.83
2019-03-30T17:59:04.203Z,10.10
2019-03-30T18:01:34.378Z,9.47
2019-03-30T18:04:05.682Z,10.50
2019-03-30T18:06:37.839Z,9.80
2019-03-30T18:09:09.032Z,10.57
2019-03-30T18:11:39.659Z,26.50
2019-03-30T18:14:10.091Z,12.03
2019-03-30T18:16:40.501Z,11.87
2019-03-30T18:19:11.025Z,9.03
2019-03-30T18:21:41.455Z,8.30
2019-03-30T18:24:12.008Z,8.67
2019-03-30T18:26:42.707Z,7.97
2019-03-30T18:29:13.328Z,7.13
2019-03-30T18:31:44.203Z,5.97
2019-03-30T18:34:15.088Z,5.00
2019-03-30T18:36:47.384Z,5.83
2019-03-30T18:39:18.316Z,5.17
2019-03-30T18:41:48.728Z,4.70
2019-03-30T18:44:19.287Z,7.00
2019-03-30T18:46:49.797Z,6.30
2019-03-30T18:49:20.372Z,6.77
2019-03-30T18:51:51.446Z,7.20
2019-03-30T18:54:22.609Z,7.33
2019-03-30T18:56:53.144Z,8.27
2019-03-30T18:59:23.659Z,9.10
2019-03-30T19:01:54.201Z,9.83
2019-03-30T19:04:24.732Z,11.60
2019-03-30T19:06:55.214Z,12.00
2019-03-30T19:09:25.687Z,13.63
2019-03-30T19:11:56.090Z,14.53
2019-03-30T19:14:26.652Z,14.23
2019-03-30T19:16:57.271Z,16.40
2019-03-30T19:19:27.939Z,17.53
2019-03-30T19:21:58.507Z,18.50
2019-03-30T19:24:28.951Z,18.50
2019-03-30T19:27:01.568Z,19.90
2019-03-30T19:29:32.152Z,20.67
2019-03-30T19:32:02.688Z,20.83
2019-03-30T19:34:33.332Z,21.90
2019-03-30T19:37:03.944Z,19.33
2019-03-30T19:39:34.585Z,22.10
2019-03-30T19:42:05.251Z,23.13
2019-03-30T19:44:35.603Z,21.33
2019-03-30T19:47:06.047Z,21.73
2019-03-30T19:49:36.575Z,20.30
2019-03-30T19:52:07.046Z,24.07
2019-03-30T19:54:37.564Z,22.37
2019-03-30T19:57:08.059Z,21.77
2019-03-30T19:59:38.492Z,24.67
2019-03-30T20:02:09.112Z,25.27
2019-03-30T20:04:39.693Z,25.80
2019-03-30T20:07:10.318Z,26.07
2019-03-30T20:09:40.913Z,23.53
2019-03-30T20:12:11.582Z,21.73
2019-03-30T20:14:42.247Z,23.73
2019-03-30T20:17:12.792Z,23.20
2019-03-30T20:19:43.665Z,21.73
2019-03-30T20:22:14.294Z,19.63
2019-03-30T20:24:44.728Z,18.63
2019-03-30T20:27:15.221Z,18.73
2019-03-30T20:29:45.748Z,17.57
2019-03-30T20:32:16.220Z,18.17
2019-03-30T20:34:46.691Z,16.50
2019-03-30T20:37:16.955Z,16.57
2019-03-30T20:39:47.204Z,15.43
2019-03-30T20:42:17.435Z,15.30
2019-03-30T20:44:47.648Z,16.33
2019-03-30T20:47:17.871Z,17.40
2019-03-30T20:49:48.074Z,17.73
2019-03-30T20:52:18.243Z,18.50
2019-03-30T20:54:48.536Z,18.37
2019-03-30T20:57:19.640Z,19.17
2019-03-30T20:59:49.804Z,17.20
2019-03-30T21:02:20.089Z,18.10
2019-03-30T21:04:50.308Z,17.87
2019-03-30T21:07:21.501Z,18.90
2019-03-30T21:09:51.713Z,17.13
2019-03-30T21:12:21.936Z,15.80
2019-03-30T21:14:52.108Z,17.07
2019-03-30T21:17:22.318Z,15.40
2019-03-30T21:19:52.517Z,16.10
2019-03-30T21:22:22.675Z,16.80
2019-03-30T21:24:52.848Z,16.03
2019-03-30T21:27:24.236Z,16.47
2019-03-30T21:29:55.222Z,16.37
2019-03-30T21:32:25.638Z,17.63
2019-03-30T21:34:55.935Z,17.37
2019-03-30T21:37:26.076Z,17.43
2019-03-30T21:39:56.237Z,17.73
2019-03-30T21:42:26.424Z,16.60
2019-03-30T21:44:56.625Z,16.17
2019-03-30T21:47:26.821Z,18.17
2019-03-30T21:49:57.020Z,16.33
2019-03-30T21:52:27.226Z,15.93
2019-03-30T21:54:58.059Z,17.77
2019-03-30T21:57:28.379Z,15.27
2019-03-30T22:00:09.815Z,17.20
2019-03-30T22:02:30.344Z,17.17
2019-03-30T22:05:00.519Z,16.67
2019-03-30T22:07:30.872Z,16.73
2019-03-30T22:10:01.038Z,15.90
2019-03-30T22:12:31.244Z,16.80
2019-03-30T22:15:01.636Z,16.47
2019-03-30T22:17:31.831Z,15.93
2019-03-30T22:20:02.028Z,15.50
2019-03-30T22:22:32.228Z,14.60
2019-03-30T22:25:02.461Z,15.80
2019-03-30T22:27:32.648Z,14.33
2019-03-30T22:30:02.816Z,15.60
2019-03-30T22:32:33.052Z,15.60
2019-03-30T22:35:03.205Z,16.07
2019-03-30T22:37:33.427Z,14.20
2019-03-30T22:40:06.723Z,14.63
2019-03-30T22:42:36.831Z,14.57
2019-03-30T22:45:07.714Z,14.40
2019-03-30T22:47:37.941Z,15.90
2019-03-30T22:50:09.881Z,15.13
2019-03-30T22:52:40.055Z,15.00
2019-03-30T22:55:10.560Z,14.87
2019-03-30T22:57:40.669Z,15.00
2019-03-30T23:00:17.197Z,14.80
2019-03-30T23:02:47.415Z,14.97
2019-03-30T23:05:17.590Z,15.90
2019-03-30T23:07:47.747Z,16.70
2019-03-30T23:10:17.897Z,15.43
2019-03-30T23:12:48.051Z,16.73
2019-03-30T23:15:18.250Z,15.83
2019-03-30T23:17:48.428Z,16.23
2019-03-30T23:20:18.619Z,16.20
2019-03-30T23:22:48.887Z,16.23
2019-03-30T23:25:19.106Z,13.40
2019-03-30T23:27:49.271Z,13.17
2019-03-30T23:30:19.524Z,13.77
2019-03-30T23:32:49.771Z,13.93
2019-03-30T23:35:19.936Z,14.23
2019-03-30T23:37:50.116Z,13.20
2019-03-30T23:40:20.283Z,11.47
2019-03-30T23:42:50.438Z,11.50
2019-03-30T23:45:20.607Z,11.47
2019-03-30T23:47:50.701Z,12.50
2019-03-30T23:50:20.933Z,11.20
2019-03-30T23:52:51.012Z,12.13
2019-03-30T23:55:21.168Z,12.70
2019-03-30T23:57:51.333Z,11.87
